createdAt,value
2016-09-17T00:00:57.114Z,965.22
2016-09-17T00:01:57.083Z,965.23
2016-09-17T00:02:57.047Z,965.22
2016-09-17T00:03:57.015Z,965.21
2016-09-17T00:04:56.981Z,965.15
2016-09-17T00:05:56.948Z,965.18
2016-09-17T00:06:56.916Z,965.14
2016-09-17T00:07:56.883Z,965.15
2016-09-17T00:08:56.849Z,965.09
2016-09-17T00:09:56.816Z,965.14
2016-09-17T00:10:56.781Z,965.16
2016-09-17T00:11:56.749Z,965.11
2016-09-17T00:12:56.715Z,965.15
2016-09-17T00:13:56.682Z,965.14
2016-09-17T00:14:56.647Z,965.14
2016-09-17T00:15:56.615Z,965.15
2016-09-17T00:16:56.581Z,965.13
2016-09-17T00:17:56.548Z,965.17
2016-09-17T00:18:56.518Z,965.15
2016-09-17T00:19:56.482Z,965.18
2016-09-17T00:20:56.449Z,965.15
2016-09-17T00:21:56.414Z,965.15
2016-09-17T00:22:56.398Z,965.14
2016-09-17T00:23:56.348Z,965.13
2016-09-17T00:24:56.315Z,965.11
2016-09-17T00:25:56.403Z,965.11
2016-09-17T00:26:56.249Z,965.09
2016-09-17T00:27:56.214Z,965.1
2016-09-17T00:28:56.182Z,965.11
2016-09-17T00:29:56.149Z,965.1
2016-09-17T00:30:56.118Z,965.06
2016-09-17T00:31:56.082Z,965.09
2016-09-17T00:32:56.049Z,965.06
2016-09-17T00:33:56.016Z,965.06
2016-09-17T00:34:55.981Z,965.04
2016-09-17T00:35:55.948Z,965.02
2016-09-17T00:36:55.915Z,965.02
2016-09-17T00:37:55.882Z,965.01
2016-09-17T00:38:55.848Z,965.01
2016-09-17T00:39:55.815Z,964.99
2016-09-17T00:40:55.784Z,965.01
2016-09-17T00:41:55.749Z,965.01
2016-09-17T00:42:55.713Z,965
2016-09-17T00:43:55.683Z,964.97
2016-09-17T00:44:55.650Z,964.95
2016-09-17T00:45:55.617Z,964.89
2016-09-17T00:46:55.583Z,964.93
2016-09-17T00:47:55.550Z,964.93
2016-09-17T00:48:55.517Z,964.91
2016-09-17T00:49:55.484Z,964.87
2016-09-17T00:50:55.458Z,964.89
2016-09-17T00:51:55.419Z,964.88
2016-09-17T00:52:55.385Z,964.86
2016-09-17T00:53:55.352Z,964.88
2016-09-17T00:54:55.320Z,964.86
2016-09-17T00:55:55.286Z,964.87
2016-09-17T00:56:55.253Z,964.88
2016-09-17T00:57:55.227Z,964.82
2016-09-17T00:58:55.189Z,964.87
2016-09-17T00:59:55.154Z,964.81
2016-09-17T01:00:55.121Z,964.8
2016-09-17T01:01:55.087Z,964.85
2016-09-17T01:02:55.054Z,964.82
2016-09-17T01:03:55.024Z,964.81
2016-09-17T01:04:54.988Z,964.84
2016-09-17T01:05:54.956Z,964.83
2016-09-17T01:06:54.922Z,964.8
2016-09-17T01:07:54.890Z,964.78
2016-09-17T01:08:54.857Z,964.77
2016-09-17T01:09:54.823Z,964.78
2016-09-17T01:10:54.790Z,964.73
2016-09-17T01:11:54.757Z,964.77
2016-09-17T01:12:54.723Z,964.75
2016-09-17T01:13:54.691Z,964.73
2016-09-17T01:14:54.657Z,964.68
2016-09-17T01:15:54.624Z,964.66
2016-09-17T01:16:54.593Z,964.66
2016-09-17T01:17:54.559Z,964.63
2016-09-17T01:18:54.526Z,964.64
2016-09-17T01:19:54.491Z,964.67
2016-09-17T01:20:54.459Z,964.7
2016-09-17T01:21:54.425Z,964.69
2016-09-17T01:22:54.392Z,964.69
2016-09-17T01:23:54.359Z,964.73
2016-09-17T01:24:54.327Z,964.73
2016-09-17T01:25:54.295Z,964.72
2016-09-17T01:26:54.260Z,964.66
2016-09-17T01:27:54.229Z,964.64
2016-09-17T01:28:54.195Z,964.59
2016-09-17T01:29:54.161Z,964.54
2016-09-17T01:30:54.128Z,964.53
2016-09-17T01:31:54.096Z,964.52
2016-09-17T01:32:54.061Z,964.52
2016-09-17T01:33:54.029Z,964.45
2016-09-17T01:34:53.999Z,964.48
2016-09-17T01:35:53.963Z,964.45
2016-09-17T01:36:53.929Z,964.43
2016-09-17T01:37:53.895Z,964.48
2016-09-17T01:38:53.865Z,964.48
2016-09-17T01:39:53.832Z,964.48
2016-09-17T01:40:53.797Z,964.47
2016-09-17T01:41:53.765Z,964.48
2016-09-17T01:42:53.732Z,964.42
2016-09-17T01:43:53.702Z,964.46
2016-09-17T01:44:53.664Z,964.45
2016-09-17T01:45:53.633Z,964.47
2016-09-17T01:46:53.599Z,964.44
2016-09-17T01:47:53.567Z,964.4
2016-09-17T01:48:53.532Z,964.38
2016-09-17T01:49:53.500Z,964.41
2016-09-17T01:50:53.466Z,964.38
2016-09-17T01:51:53.433Z,964.34
2016-09-17T01:52:53.400Z,964.37
2016-09-17T01:53:53.364Z,964.39
2016-09-17T01:54:53.334Z,964.43
2016-09-17T01:55:53.299Z,964.4
2016-09-17T01:56:53.267Z,964.41
2016-09-17T01:57:53.232Z,964.4
2016-09-17T01:58:53.200Z,964.42
2016-09-17T01:59:53.168Z,964.43
2016-09-17T02:00:53.133Z,964.47
2016-09-17T02:01:53.101Z,964.46
2016-09-17T02:02:53.068Z,964.49
2016-09-17T02:03:53.035Z,964.51
2016-09-17T02:04:53.009Z,964.53
2016-09-17T02:05:52.966Z,964.53
2016-09-17T02:06:52.935Z,964.54
2016-09-17T02:07:52.900Z,964.55
2016-09-17T02:08:52.877Z,964.6
2016-09-17T02:09:52.836Z,964.63
2016-09-17T02:10:52.807Z,964.63
2016-09-17T02:11:52.769Z,964.63
2016-09-17T02:12:52.735Z,964.67
2016-09-17T02:13:52.701Z,964.7
2016-09-17T02:14:52.670Z,964.67
2016-09-17T02:15:52.636Z,964.69
2016-09-17T02:16:52.603Z,964.7
2016-09-17T02:17:52.568Z,964.71
2016-09-17T02:18:52.538Z,964.72
2016-09-17T02:19:52.504Z,964.72
2016-09-17T02:20:52.468Z,964.71
2016-09-17T02:21:52.439Z,964.67
2016-09-17T02:22:52.402Z,964.71
2016-09-17T02:23:52.369Z,964.67
2016-09-17T02:24:52.337Z,964.66
2016-09-17T02:25:52.303Z,964.63
2016-09-17T02:26:52.268Z,964.61
2016-09-17T02:27:52.237Z,964.63
2016-09-17T02:28:52.204Z,964.62
2016-09-17T02:29:52.169Z,964.62
2016-09-17T02:30:52.135Z,964.65
2016-09-17T02:31:52.101Z,964.63
2016-09-17T02:32:52.069Z,964.68
2016-09-17T02:33:52.037Z,964.64
2016-09-17T02:34:52.003Z,964.7
2016-09-17T02:35:51.968Z,964.67
2016-09-17T02:36:51.935Z,964.66
2016-09-17T02:37:51.903Z,964.69
2016-09-17T02:38:51.869Z,964.68
2016-09-17T02:39:51.836Z,964.66
2016-09-17T02:40:51.802Z,964.69
2016-09-17T02:41:51.769Z,964.65
2016-09-17T02:42:51.736Z,964.68
2016-09-17T02:43:51.701Z,964.65
2016-09-17T02:44:51.668Z,964.62
2016-09-17T02:45:51.636Z,964.62
2016-09-17T02:46:51.602Z,964.6
2016-09-17T02:47:51.568Z,964.61
2016-09-17T02:48:51.535Z,964.59
2016-09-17T02:49:51.503Z,964.58
2016-09-17T02:50:51.467Z,964.56
2016-09-17T02:51:51.434Z,964.62
2016-09-17T02:52:51.401Z,964.59
2016-09-17T02:53:51.367Z,964.6
2016-09-17T02:54:51.334Z,964.62
2016-09-17T02:55:51.300Z,964.61
2016-09-17T02:56:51.267Z,964.61
2016-09-17T02:57:51.240Z,964.56
2016-09-17T02:58:51.203Z,964.57
2016-09-17T02:59:51.172Z,964.56
2016-09-17T03:00:51.137Z,964.58
2016-09-17T03:01:51.100Z,964.59
2016-09-17T03:02:51.068Z,964.62
2016-09-17T03:03:51.036Z,964.58
2016-09-17T03:04:51.001Z,964.62
2016-09-17T03:05:50.971Z,964.62
2016-09-17T03:06:50.934Z,964.65
2016-09-17T03:07:50.900Z,964.64
2016-09-17T03:08:50.867Z,964.63
2016-09-17T03:09:50.835Z,964.6
2016-09-17T03:10:50.800Z,964.64
2016-09-17T03:11:50.766Z,964.59
2016-09-17T03:12:50.735Z,964.6
2016-09-17T03:13:50.701Z,964.63
2016-09-17T03:14:50.668Z,964.65
2016-09-17T03:15:50.649Z,964.63
2016-09-17T03:16:50.603Z,964.6
2016-09-17T03:17:50.568Z,964.57
2016-09-17T03:18:50.533Z,964.55
2016-09-17T03:19:50.501Z,964.58
2016-09-17T03:20:50.467Z,964.58
2016-09-17T03:21:50.433Z,964.58
2016-09-17T03:22:50.401Z,964.58
2016-09-17T03:23:50.367Z,964.55
2016-09-17T03:24:50.334Z,964.58
2016-09-17T03:25:50.300Z,964.56
2016-09-17T03:26:50.268Z,964.53
2016-09-17T03:27:50.234Z,964.59
2016-09-17T03:28:50.200Z,964.58
2016-09-17T03:29:50.167Z,964.58
2016-09-17T03:30:50.134Z,964.65
2016-09-17T03:31:50.100Z,964.61
2016-09-17T03:32:50.066Z,964.68
2016-09-17T03:33:50.033Z,964.66
2016-09-17T03:34:50.000Z,964.66
2016-09-17T03:35:49.967Z,964.69
2016-09-17T03:36:49.934Z,964.64
2016-09-17T03:37:49.901Z,964.71
2016-09-17T03:38:49.870Z,964.66
2016-09-17T03:39:49.833Z,964.66
2016-09-17T03:40:49.800Z,964.66
2016-09-17T03:41:49.766Z,964.6
2016-09-17T03:42:49.734Z,964.63
2016-09-17T03:43:49.702Z,964.63
2016-09-17T03:44:49.667Z,964.62
2016-09-17T03:45:49.635Z,964.59
2016-09-17T03:46:49.602Z,964.58
2016-09-17T03:47:49.568Z,964.57
2016-09-17T03:48:49.535Z,964.59
2016-09-17T03:49:49.502Z,964.59
2016-09-17T03:50:49.468Z,964.65
2016-09-17T03:51:49.437Z,964.66
2016-09-17T03:52:49.402Z,964.64
2016-09-17T03:53:49.368Z,964.62
2016-09-17T03:54:49.337Z,964.64
2016-09-17T03:55:49.314Z,964.61
2016-09-17T03:56:49.269Z,964.62
2016-09-17T03:57:49.235Z,964.62
2016-09-17T03:58:49.202Z,964.6
2016-09-17T03:59:49.170Z,964.68
2016-09-17T04:00:49.136Z,964.65
2016-09-17T04:01:49.102Z,964.63
2016-09-17T04:02:49.069Z,964.67
2016-09-17T04:03:49.043Z,964.68
2016-09-17T04:04:49.003Z,964.68
2016-09-17T04:05:48.975Z,964.68
2016-09-17T04:06:48.942Z,964.67
2016-09-17T04:07:48.902Z,964.69
2016-09-17T04:08:48.868Z,964.64
2016-09-17T04:09:48.834Z,964.64
2016-09-17T04:10:48.802Z,964.65
2016-09-17T04:11:48.768Z,964.66
2016-09-17T04:12:48.735Z,964.63
2016-09-17T04:13:48.703Z,964.69
2016-09-17T04:14:48.682Z,964.64
2016-09-17T04:15:48.636Z,964.69
2016-09-17T04:16:48.603Z,964.71
2016-09-17T04:17:48.569Z,964.66
2016-09-17T04:18:48.537Z,964.67
2016-09-17T04:19:48.503Z,964.67
2016-09-17T04:20:48.469Z,964.65
2016-09-17T04:21:48.438Z,964.61
2016-09-17T04:22:48.402Z,964.63
2016-09-17T04:23:48.371Z,964.69
2016-09-17T04:24:48.338Z,964.66
2016-09-17T04:25:48.303Z,964.66
2016-09-17T04:26:48.274Z,964.62
2016-09-17T04:27:48.239Z,964.69
2016-09-17T04:28:48.204Z,964.59
2016-09-17T04:29:48.173Z,964.61
2016-09-17T04:30:48.139Z,964.63
2016-09-17T04:31:48.107Z,964.62
2016-09-17T04:32:48.073Z,964.61
2016-09-17T04:33:48.040Z,964.6
2016-09-17T04:34:48.006Z,964.63
2016-09-17T04:35:47.974Z,964.6
2016-09-17T04:36:47.947Z,964.62
2016-09-17T04:37:47.906Z,964.62
2016-09-17T04:38:47.874Z,964.61
2016-09-17T04:39:47.841Z,964.63
2016-09-17T04:40:47.807Z,964.61
2016-09-17T04:41:47.774Z,964.58
2016-09-17T04:42:47.742Z,964.55
2016-09-17T04:43:47.708Z,964.58
2016-09-17T04:44:47.676Z,964.55
2016-09-17T04:45:47.643Z,964.54
2016-09-17T04:46:47.610Z,964.53
2016-09-17T04:47:47.574Z,964.53
2016-09-17T04:48:47.540Z,964.53
2016-09-17T04:49:47.509Z,964.51
2016-09-17T04:50:47.475Z,964.51
2016-09-17T04:51:47.443Z,964.52
2016-09-17T04:52:47.414Z,964.5
2016-09-17T04:53:47.375Z,964.54
2016-09-17T04:54:47.343Z,964.56
2016-09-17T04:55:47.311Z,964.61
2016-09-17T04:56:47.278Z,964.58
2016-09-17T04:57:47.244Z,964.56
2016-09-17T04:58:47.211Z,964.6
2016-09-17T04:59:47.178Z,964.63
2016-09-17T05:00:47.144Z,964.59
2016-09-17T05:01:47.111Z,964.62
2016-09-17T05:02:47.079Z,964.64
2016-09-17T05:03:47.045Z,964.66
2016-09-17T05:04:47.015Z,964.61
2016-09-17T05:05:46.979Z,964.62
2016-09-17T05:06:46.948Z,964.64
2016-09-17T05:07:46.913Z,964.62
2016-09-17T05:08:46.879Z,964.64
2016-09-17T05:09:46.844Z,964.64
2016-09-17T05:10:46.811Z,964.64
2016-09-17T05:11:46.780Z,964.67
2016-09-17T05:12:46.746Z,964.67
2016-09-17T05:13:46.715Z,964.66
2016-09-17T05:14:46.680Z,964.68
2016-09-17T05:15:46.648Z,964.67
2016-09-17T05:16:46.612Z,964.66
2016-09-17T05:17:46.580Z,964.67
2016-09-17T05:18:46.546Z,964.69
2016-09-17T05:19:46.515Z,964.67
2016-09-17T05:20:46.482Z,964.65
2016-09-17T05:21:46.450Z,964.67
2016-09-17T05:22:46.416Z,964.67
2016-09-17T05:23:46.382Z,964.67
2016-09-17T05:24:46.349Z,964.67
2016-09-17T05:25:46.316Z,964.67
2016-09-17T05:26:46.284Z,964.7
2016-09-17T05:27:46.249Z,964.72
2016-09-17T05:28:46.217Z,964.75
2016-09-17T05:29:46.183Z,964.73
2016-09-17T05:30:46.150Z,964.75
2016-09-17T05:31:46.117Z,964.8
2016-09-17T05:32:46.082Z,964.78
2016-09-17T05:33:46.049Z,964.77
2016-09-17T05:34:46.015Z,964.78
2016-09-17T05:35:45.983Z,964.79
2016-09-17T05:36:45.959Z,964.81
2016-09-17T05:37:45.918Z,964.75
2016-09-17T05:38:45.884Z,964.81
2016-09-17T05:39:45.850Z,964.79
2016-09-17T05:40:45.817Z,964.81
2016-09-17T05:41:45.783Z,964.81
2016-09-17T05:42:45.750Z,964.78
2016-09-17T05:43:45.718Z,964.76
2016-09-17T05:44:45.685Z,964.81
2016-09-17T05:45:45.650Z,964.81
2016-09-17T05:46:45.618Z,964.85
2016-09-17T05:47:45.586Z,964.78
2016-09-17T05:48:45.552Z,964.84
2016-09-17T05:49:45.519Z,964.82
2016-09-17T05:50:45.494Z,964.85
2016-09-17T05:51:45.454Z,964.88
2016-09-17T05:52:45.419Z,964.88
2016-09-17T05:53:45.388Z,964.9
2016-09-17T05:54:45.354Z,964.88
2016-09-17T05:55:45.321Z,964.9
2016-09-17T05:56:45.284Z,964.92
2016-09-17T05:57:45.254Z,964.94
2016-09-17T05:58:45.221Z,964.91
2016-09-17T05:59:45.190Z,964.93
2016-09-17T06:00:45.153Z,964.92
2016-09-17T06:01:45.122Z,964.97
2016-09-17T06:02:45.088Z,964.93
2016-09-17T06:03:45.056Z,964.93
2016-09-17T06:04:45.022Z,964.92
2016-09-17T06:05:44.991Z,964.96
2016-09-17T06:06:44.956Z,964.98
2016-09-17T06:07:44.924Z,964.92
2016-09-17T06:08:44.890Z,964.95
2016-09-17T06:09:44.856Z,964.98
2016-09-17T06:10:44.824Z,964.93
2016-09-17T06:11:44.790Z,965.01
2016-09-17T06:12:44.757Z,964.98
2016-09-17T06:13:44.725Z,965.01
2016-09-17T06:14:44.692Z,964.99
2016-09-17T06:15:44.659Z,965.04
2016-09-17T06:16:44.627Z,965.02
2016-09-17T06:17:44.594Z,965.04
2016-09-17T06:18:44.561Z,965.05
2016-09-17T06:19:44.526Z,965.04
2016-09-17T06:20:44.494Z,965.05
2016-09-17T06:21:44.463Z,965.07
2016-09-17T06:22:44.428Z,965.1
2016-09-17T06:23:44.396Z,965.09
2016-09-17T06:24:44.364Z,965.06
2016-09-17T06:25:44.330Z,965.1
2016-09-17T06:26:44.297Z,965.13
2016-09-17T06:27:44.268Z,965.13
2016-09-17T06:28:44.232Z,965.08
2016-09-17T06:29:44.199Z,965.15
2016-09-17T06:30:44.168Z,965.12
2016-09-17T06:31:44.133Z,965.12
2016-09-17T06:32:44.103Z,965.1
2016-09-17T06:33:44.067Z,965.08
2016-09-17T06:34:44.035Z,965.13
2016-09-17T06:35:44.001Z,965.07
2016-09-17T06:36:43.970Z,965.03
2016-09-17T06:37:43.935Z,965.06
2016-09-17T06:38:43.904Z,965.04
2016-09-17T06:39:43.872Z,965.08
2016-09-17T06:40:43.837Z,965.07
2016-09-17T06:41:43.806Z,965.07
2016-09-17T06:42:43.772Z,965.07
2016-09-17T06:43:43.742Z,965.07
2016-09-17T06:44:43.707Z,965.09
2016-09-17T06:45:43.675Z,965.07
2016-09-17T06:46:43.644Z,965.07
2016-09-17T06:47:43.611Z,965.08
2016-09-17T06:48:43.578Z,965.07
2016-09-17T06:49:43.546Z,965.04
2016-09-17T06:50:43.513Z,965.06
2016-09-17T06:51:43.480Z,965.09
2016-09-17T06:52:43.449Z,965.12
2016-09-17T06:53:43.416Z,965.12
2016-09-17T06:54:43.384Z,965.1
2016-09-17T06:55:43.352Z,965.13
2016-09-17T06:56:43.318Z,965.1
2016-09-17T06:57:43.288Z,965.09
2016-09-17T06:58:43.253Z,965.1
2016-09-17T06:59:43.224Z,965.1
2016-09-17T07:00:43.188Z,965.11
2016-09-17T07:01:43.168Z,965.16
2016-09-17T07:02:43.126Z,965.11
2016-09-17T07:03:43.095Z,965.15
2016-09-17T07:04:43.063Z,965.14
2016-09-17T07:05:43.029Z,965.18
2016-09-17T07:06:42.998Z,965.15
2016-09-17T07:07:42.965Z,965.13
2016-09-17T07:08:42.935Z,965.2
2016-09-17T07:09:42.901Z,965.19
2016-09-17T07:10:42.872Z,965.18
2016-09-17T07:11:42.838Z,965.19
2016-09-17T07:12:42.808Z,965.21
2016-09-17T07:13:42.775Z,965.16
2016-09-17T07:14:42.744Z,965.21
2016-09-17T07:15:42.711Z,965.22
2016-09-17T07:16:42.680Z,965.23
2016-09-17T07:17:42.647Z,965.22
2016-09-17T07:18:42.618Z,965.22
2016-09-17T07:19:42.593Z,965.23
2016-09-17T07:20:42.553Z,965.23
2016-09-17T07:21:42.523Z,965.23
2016-09-17T07:22:42.492Z,965.28
2016-09-17T07:23:42.460Z,965.28
2016-09-17T07:24:42.428Z,965.26
2016-09-17T07:25:42.400Z,965.31
2016-09-17T07:26:42.367Z,965.32
2016-09-17T07:27:42.334Z,965.32
2016-09-17T07:28:42.304Z,965.34
2016-09-17T07:29:42.273Z,965.35
2016-09-17T07:30:42.246Z,965.26
2016-09-17T07:31:42.213Z,965.3
2016-09-17T07:32:42.181Z,965.3
2016-09-17T07:33:42.149Z,965.31
2016-09-17T07:34:42.119Z,965.28
2016-09-17T07:35:42.087Z,965.3
2016-09-17T07:36:42.058Z,965.3
2016-09-17T07:37:42.029Z,965.3
2016-09-17T07:38:42.000Z,965.29
2016-09-17T07:39:41.967Z,965.33
2016-09-17T07:40:41.937Z,965.34
2016-09-17T07:41:41.905Z,965.35
2016-09-17T07:42:41.874Z,965.37
2016-09-17T07:43:41.846Z,965.35
2016-09-17T07:44:41.814Z,965.4
2016-09-17T07:45:41.783Z,965.37
2016-09-17T07:46:41.755Z,965.37
2016-09-17T07:47:41.723Z,965.36
2016-09-17T07:48:41.694Z,965.38
2016-09-17T07:49:41.662Z,965.39
2016-09-17T07:50:41.633Z,965.39
2016-09-17T07:51:41.604Z,965.34
2016-09-17T07:52:41.572Z,965.38
2016-09-17T07:53:41.543Z,965.39
2016-09-17T07:54:41.514Z,965.36
2016-09-17T07:55:41.484Z,965.38
2016-09-17T07:56:41.452Z,965.39
2016-09-17T07:57:41.422Z,965.4
2016-09-17T07:58:41.393Z,965.41
2016-09-17T07:59:41.363Z,965.41
2016-09-17T08:00:41.334Z,965.39
2016-09-17T08:01:41.303Z,965.41
2016-09-17T08:02:41.275Z,965.41
2016-09-17T08:03:41.244Z,965.44
2016-09-17T08:04:41.213Z,965.43
2016-09-17T08:05:41.182Z,965.42
2016-09-17T08:06:41.154Z,965.45
2016-09-17T08:07:41.134Z,965.41
2016-09-17T08:08:41.100Z,965.44
2016-09-17T08:09:41.064Z,965.47
2016-09-17T08:10:41.036Z,965.5
2016-09-17T08:11:41.005Z,965.45
2016-09-17T08:12:40.977Z,965.45
2016-09-17T08:13:40.947Z,965.47
2016-09-17T08:14:40.921Z,965.5
2016-09-17T08:15:40.890Z,965.51
2016-09-17T08:16:40.859Z,965.47
2016-09-17T08:17:40.829Z,965.51
2016-09-17T08:18:40.800Z,965.53
2016-09-17T08:19:40.772Z,965.52
2016-09-17T08:20:40.742Z,965.51
2016-09-17T08:21:40.714Z,965.57
2016-09-17T08:22:40.684Z,965.54
2016-09-17T08:23:40.653Z,965.54
2016-09-17T08:24:40.625Z,965.52
2016-09-17T08:25:40.600Z,965.55
2016-09-17T08:26:40.567Z,965.55
2016-09-17T08:27:40.540Z,965.59
2016-09-17T08:28:40.510Z,965.57
2016-09-17T08:29:40.482Z,965.61
2016-09-17T08:30:40.453Z,965.6
2016-09-17T08:31:40.424Z,965.59
2016-09-17T08:32:40.396Z,965.6
2016-09-17T08:33:40.366Z,965.59
2016-09-17T08:34:40.341Z,965.65
2016-09-17T08:35:40.310Z,965.59
2016-09-17T08:36:40.283Z,965.58
2016-09-17T08:37:40.251Z,965.59
2016-09-17T08:38:40.226Z,965.57
2016-09-17T08:39:40.197Z,965.59
2016-09-17T08:40:40.168Z,965.6
2016-09-17T08:41:40.139Z,965.58
2016-09-17T08:42:40.113Z,965.55
2016-09-17T08:43:40.086Z,965.54
2016-09-17T08:44:40.058Z,965.54
2016-09-17T08:45:40.030Z,965.57
2016-09-17T08:46:40.003Z,965.57
2016-09-17T08:47:39.975Z,965.56
2016-09-17T08:48:39.956Z,965.57
2016-09-17T08:49:39.920Z,965.58
2016-09-17T08:50:39.894Z,965.61
2016-09-17T08:51:39.866Z,965.63
2016-09-17T08:52:39.839Z,965.65
2016-09-17T08:53:39.813Z,965.63
2016-09-17T08:54:39.787Z,965.69
2016-09-17T08:55:39.760Z,965.69
2016-09-17T08:56:39.734Z,965.69
2016-09-17T08:57:39.707Z,965.72
2016-09-17T08:58:39.681Z,965.71
2016-09-17T08:59:39.653Z,965.77
2016-09-17T09:00:39.627Z,965.81
2016-09-17T09:01:39.601Z,965.7
2016-09-17T09:02:39.573Z,965.69
2016-09-17T09:03:39.547Z,965.71
2016-09-17T09:04:39.524Z,965.66
2016-09-17T09:05:39.499Z,965.73
2016-09-17T09:06:39.470Z,965.74
2016-09-17T09:07:39.444Z,965.82
2016-09-17T09:08:39.419Z,965.81
2016-09-17T09:09:39.393Z,965.8
2016-09-17T09:10:39.366Z,965.75
2016-09-17T09:11:39.342Z,965.75
2016-09-17T09:12:39.317Z,965.78
2016-09-17T09:13:39.290Z,965.78
2016-09-17T09:14:39.265Z,965.82
2016-09-17T09:15:39.240Z,965.8
2016-09-17T09:16:39.216Z,965.83
2016-09-17T09:17:39.189Z,965.82
2016-09-17T09:18:39.165Z,965.95
2016-09-17T09:19:39.140Z,965.78
2016-09-17T09:20:39.115Z,965.8
2016-09-17T09:21:39.090Z,965.8
2016-09-17T09:22:39.065Z,965.81
2016-09-17T09:23:39.050Z,965.73
2016-09-17T09:24:39.017Z,965.76
2016-09-17T09:25:38.994Z,965.76
2016-09-17T09:26:38.968Z,965.64
2016-09-17T09:27:38.943Z,965.75
2016-09-17T09:28:38.921Z,965.62
2016-09-17T09:29:38.897Z,965.72
2016-09-17T09:30:38.874Z,965.75
2016-09-17T09:31:38.851Z,965.73
2016-09-17T09:32:38.824Z,965.7
2016-09-17T09:33:38.804Z,965.65
2016-09-17T09:34:38.780Z,965.7
2016-09-17T09:35:38.757Z,965.71
2016-09-17T09:36:38.730Z,965.51
2016-09-17T09:37:38.707Z,965.56
2016-09-17T09:38:38.684Z,965.77
2016-09-17T09:39:38.660Z,965.71
2016-09-17T09:40:38.635Z,965.69
2016-09-17T09:41:38.612Z,965.85
2016-09-17T09:42:38.591Z,965.54
2016-09-17T09:43:38.566Z,965.49
2016-09-17T09:44:38.543Z,965.5
2016-09-17T09:45:38.523Z,965.49
2016-09-17T09:46:38.496Z,965.46
2016-09-17T09:47:38.474Z,965.74
2016-09-17T09:48:38.453Z,965.82
2016-09-17T09:49:38.432Z,965.82
2016-09-17T09:50:38.406Z,965.95
2016-09-17T09:51:38.383Z,966.27
2016-09-17T09:52:38.362Z,965.69
2016-09-17T09:53:38.339Z,965.45
2016-09-17T09:54:38.319Z,965.38
2016-09-17T09:55:38.295Z,965.36
2016-09-17T09:56:38.272Z,965.35
2016-09-17T09:57:38.249Z,965.39
2016-09-17T09:58:38.229Z,965.42
2016-09-17T09:59:38.209Z,965.5
2016-09-17T10:00:38.183Z,965.36
2016-09-17T10:01:38.162Z,965.35
2016-09-17T10:02:38.138Z,965.32
2016-09-17T10:03:38.113Z,965.43
2016-09-17T10:04:38.090Z,965.33
2016-09-17T10:05:38.065Z,965.3
2016-09-17T10:06:38.043Z,965.26
2016-09-17T10:07:38.019Z,965.49
2016-09-17T10:08:37.995Z,965.97
2016-09-17T10:09:37.972Z,965.3
2016-09-17T10:10:37.949Z,965.89
2016-09-17T10:11:37.923Z,966.26
2016-09-17T10:12:37.898Z,966.27
2016-09-17T10:13:37.874Z,966.29
2016-09-17T10:14:37.852Z,965.85
2016-09-17T10:15:37.828Z,965.84
2016-09-17T10:16:37.804Z,965.34
2016-09-17T10:17:37.782Z,965.3
2016-09-17T10:18:37.760Z,965.75
2016-09-17T10:19:37.735Z,966.24
2016-09-17T10:20:37.715Z,966.21
2016-09-17T10:21:37.692Z,966.23
2016-09-17T10:22:37.670Z,966.17
2016-09-17T10:23:37.649Z,966.29
2016-09-17T10:24:37.626Z,966.36
2016-09-17T10:25:37.604Z,966.3
2016-09-17T10:26:37.584Z,966.3
2016-09-17T10:27:37.563Z,966.06
2016-09-17T10:28:37.544Z,966.4
2016-09-17T10:29:37.522Z,966.52
2016-09-17T10:30:37.502Z,966.51
2016-09-17T10:31:37.481Z,966.07
2016-09-17T10:32:37.464Z,965.78
2016-09-17T10:33:37.441Z,966.48
2016-09-17T10:34:37.422Z,966.68
2016-09-17T10:35:37.411Z,966.58
2016-09-17T10:36:37.380Z,966.13
2016-09-17T10:37:37.361Z,965.79
2016-09-17T10:38:37.341Z,965.98
2016-09-17T10:39:37.324Z,965.9
2016-09-17T10:40:37.304Z,965.83
2016-09-17T10:41:37.289Z,965.76
2016-09-17T10:42:37.261Z,965.23
2016-09-17T10:43:37.243Z,965.67
2016-09-17T10:44:37.223Z,965.67
2016-09-17T10:45:37.204Z,965.76
2016-09-17T10:46:37.186Z,965.7
2016-09-17T10:47:37.166Z,965.72
2016-09-17T10:48:37.146Z,965.7
2016-09-17T10:49:37.126Z,965.69
2016-09-17T10:50:37.107Z,965.7
2016-09-17T10:51:37.087Z,965.65
2016-09-17T10:52:37.067Z,965.53
2016-09-17T10:53:37.047Z,965.4
2016-09-17T10:54:37.029Z,965.09
2016-09-17T10:55:37.012Z,966.15
2016-09-17T10:56:36.991Z,966.45
2016-09-17T10:57:36.970Z,966.49
2016-09-17T10:58:36.952Z,966.43
2016-09-17T10:59:36.932Z,966.45
2016-09-17T11:00:36.914Z,966.39
2016-09-17T11:01:36.894Z,966.32
2016-09-17T11:02:36.875Z,965.24
2016-09-17T11:03:36.854Z,966.11
2016-09-17T11:04:36.840Z,965.92
2016-09-17T11:05:36.815Z,965.94
2016-09-17T11:06:36.796Z,965.89
2016-09-17T11:07:36.776Z,965.6
2016-09-17T11:08:36.756Z,965.39
2016-09-17T11:09:36.739Z,965.38
2016-09-17T11:10:36.715Z,965.46
2016-09-17T11:11:36.697Z,965.41
2016-09-17T11:12:36.675Z,965.33
2016-09-17T11:13:36.653Z,965.32
2016-09-17T11:14:36.634Z,965.29
2016-09-17T11:15:36.613Z,965.17
2016-09-17T11:16:36.597Z,965.19
2016-09-17T11:17:36.574Z,965.07
2016-09-17T11:18:36.551Z,965.06
2016-09-17T11:19:36.530Z,965.03
2016-09-17T11:20:36.511Z,965.29
2016-09-17T11:21:36.488Z,965.53
2016-09-17T11:22:36.468Z,965.34
2016-09-17T11:23:36.446Z,965.19
2016-09-17T11:24:36.427Z,965.07
2016-09-17T11:25:36.405Z,965
2016-09-17T11:26:36.382Z,964.96
2016-09-17T11:27:36.361Z,964.84
2016-09-17T11:28:36.338Z,964.78
2016-09-17T11:29:36.319Z,964.78
2016-09-17T11:30:36.293Z,964.74
2016-09-17T11:31:36.274Z,964.73
2016-09-17T11:32:36.249Z,964.71
2016-09-17T11:33:36.227Z,964.72
2016-09-17T11:34:36.211Z,964.7
2016-09-17T11:35:36.181Z,964.7
2016-09-17T11:36:36.156Z,964.69
2016-09-17T11:37:36.134Z,964.63
2016-09-17T11:38:36.111Z,964.66
2016-09-17T11:39:36.086Z,964.73
2016-09-17T11:40:36.061Z,964.66
2016-09-17T11:41:36.039Z,964.63
2016-09-17T11:42:36.014Z,964.58
2016-09-17T11:43:35.990Z,964.58
2016-09-17T11:44:35.965Z,964.55
2016-09-17T11:45:35.941Z,964.58
2016-09-17T11:46:35.915Z,964.57
2016-09-17T11:47:35.891Z,964.53
2016-09-17T11:48:35.866Z,964.51
2016-09-17T11:49:35.840Z,964.52
2016-09-17T11:50:35.822Z,964.53
2016-09-17T11:51:35.789Z,964.53
2016-09-17T11:52:35.767Z,964.56
2016-09-17T11:53:35.739Z,964.56
2016-09-17T11:54:35.713Z,964.54
2016-09-17T11:55:35.688Z,964.5
2016-09-17T11:56:35.663Z,964.53
2016-09-17T11:57:35.638Z,964.49
2016-09-17T11:58:35.610Z,964.46
2016-09-17T11:59:35.584Z,964.47
2016-09-17T12:00:35.561Z,964.45
2016-09-17T12:01:35.532Z,964.47
2016-09-17T12:02:35.507Z,964.4
2016-09-17T12:03:35.480Z,964.41
2016-09-17T12:04:35.463Z,964.44
2016-09-17T12:05:35.428Z,964.39
2016-09-17T12:06:35.403Z,964.42
2016-09-17T12:07:35.377Z,964.39
2016-09-17T12:08:35.353Z,964.38
2016-09-17T12:09:35.324Z,964.38
2016-09-17T12:10:35.301Z,964.34
2016-09-17T12:11:35.269Z,964.36
2016-09-17T12:12:35.261Z,964.36
2016-09-17T12:13:35.218Z,964.34
2016-09-17T12:14:35.206Z,964.37
2016-09-17T12:15:35.166Z,964.32
2016-09-17T12:16:35.138Z,964.31
2016-09-17T12:17:35.118Z,964.32
2016-09-17T12:18:35.086Z,964.28
2016-09-17T12:19:35.058Z,964.29
2016-09-17T12:20:35.030Z,964.3
2016-09-17T12:21:35.004Z,964.3
2016-09-17T12:22:34.982Z,964.29
2016-09-17T12:23:34.951Z,964.28
2016-09-17T12:24:34.922Z,964.26
2016-09-17T12:25:34.899Z,964.26
2016-09-17T12:26:34.891Z,964.25
2016-09-17T12:27:34.844Z,964.25
2016-09-17T12:28:34.818Z,964.26
2016-09-17T12:29:34.792Z,964.27
2016-09-17T12:30:34.763Z,964.26
2016-09-17T12:31:34.735Z,964.26